createdAt,value
2023-02-01T00:02:13.693Z,4.00
2023-02-01T00:04:40.530Z,4.00
2023-02-01T00:07:07.628Z,4.00
2023-02-01T00:09:34.301Z,4.00
2023-02-01T00:12:02.822Z,4.00
2023-02-01T00:14:29.899Z,4.00
2023-02-01T00:16:56.573Z,4.00
2023-02-01T00:19:23.265Z,4.00
2023-02-01T00:21:49.948Z,4.10
2023-02-01T00:24:16.636Z,4.10
2023-02-01T00:26:44.820Z,4.10
2023-02-01T00:29:13.056Z,4.20
2023-02-01T00:31:39.800Z,4.20
2023-02-01T00:34:06.483Z,4.20
2023-02-01T00:36:33.135Z,4.20
2023-02-01T00:38:59.773Z,4.30
2023-02-01T00:41:26.638Z,4.20
2023-02-01T00:43:53.393Z,4.20
2023-02-01T00:46:20.635Z,4.30
2023-02-01T00:48:47.339Z,4.20
2023-02-01T00:51:15.849Z,4.20
2023-02-01T00:53:42.550Z,4.30
2023-02-01T00:56:09.867Z,4.30
2023-02-01T00:58:36.749Z,4.30
2023-02-01T01:01:09.457Z,4.30
2023-02-01T01:03:38.096Z,4.20
2023-02-01T01:06:06.314Z,4.20
2023-02-01T01:08:33.237Z,4.10
2023-02-01T01:11:00.035Z,4.10
2023-02-01T01:13:26.782Z,4.00
2023-02-01T01:15:53.616Z,4.00
2023-02-01T01:18:20.240Z,4.00
2023-02-01T01:20:48.722Z,4.00
2023-02-01T01:23:15.560Z,4.00
2023-02-01T01:25:42.223Z,3.90
2023-02-01T01:28:08.966Z,3.90
2023-02-01T01:30:35.867Z,3.90
2023-02-01T01:33:02.578Z,3.90
2023-02-01T01:35:32.943Z,3.80
2023-02-01T01:38:00.415Z,3.80
2023-02-01T01:40:28.074Z,3.80
2023-02-01T01:42:55.629Z,3.80
2023-02-01T01:45:25.451Z,3.80
2023-02-01T01:47:57.049Z,3.80
2023-02-01T01:50:27.803Z,3.80
2023-02-01T01:52:56.291Z,3.80
2023-02-01T01:55:23.946Z,3.80
2023-02-01T01:58:00.744Z,3.80
2023-02-01T02:00:27.664Z,3.80
2023-02-01T02:03:04.373Z,3.80
2023-02-01T02:05:31.261Z,3.80
2023-02-01T02:07:58.974Z,3.80
2023-02-01T02:10:45.597Z,3.80
2023-02-01T02:13:18.861Z,3.80
2023-02-01T02:15:58.519Z,3.80
2023-02-01T02:18:32.380Z,3.80
2023-02-01T02:21:11.815Z,3.80
2023-02-01T02:23:46.347Z,3.90
2023-02-01T02:26:26.021Z,3.90
2023-02-01T02:28:55.742Z,3.90
2023-02-01T02:31:40.183Z,3.90
2023-02-01T02:34:26.696Z,4.00
2023-02-01T02:36:56.476Z,4.00
2023-02-01T02:39:39.190Z,4.10
2023-02-01T02:42:36.882Z,4.10
2023-02-01T02:45:27.116Z,4.00
2023-02-01T02:48:12.620Z,4.00
2023-02-01T02:51:00.887Z,4.00
2023-02-01T02:53:59.811Z,4.00
2023-02-01T02:56:45.933Z,4.00
2023-02-01T02:59:32.896Z,4.00
2023-02-01T03:02:18.252Z,4.00
2023-02-01T03:04:44.898Z,4.00
2023-02-01T03:07:13.619Z,4.00
2023-02-01T03:09:41.258Z,4.00
2023-02-01T03:12:30.947Z,4.00
2023-02-01T03:15:01.455Z,4.10
2023-02-01T03:17:31.927Z,4.00
2023-02-01T03:20:01.675Z,4.00
2023-02-01T03:22:32.531Z,4.00
2023-02-01T03:25:09.817Z,4.00
2023-02-01T03:27:40.786Z,4.00
2023-02-01T03:30:20.375Z,3.90
2023-02-01T03:33:01.171Z,3.90
2023-02-01T03:35:40.751Z,3.90
2023-02-01T03:38:26.370Z,3.80
2023-02-01T03:41:15.162Z,3.80
2023-02-01T03:43:47.801Z,3.80
2023-02-01T03:46:18.448Z,3.80
2023-02-01T03:48:45.568Z,3.70
2023-02-01T03:51:13.362Z,3.70
2023-02-01T03:53:41.036Z,3.70
2023-02-01T03:56:08.053Z,3.70
2023-02-01T03:58:35.065Z,3.70
2023-02-01T04:01:02.086Z,3.70
2023-02-01T04:03:31.683Z,3.70
2023-02-01T04:05:59.341Z,3.70
2023-02-01T04:08:28.547Z,3.70
2023-02-01T04:10:55.151Z,3.70
2023-02-01T04:13:21.759Z,3.70
2023-02-01T04:15:50.735Z,3.70
2023-02-01T04:18:17.524Z,3.70
2023-02-01T04:20:44.930Z,3.70
2023-02-01T04:23:11.582Z,3.60
2023-02-01T04:25:38.301Z,3.70
2023-02-01T04:28:05.759Z,3.60
2023-02-01T04:30:32.422Z,3.70
2023-02-01T04:32:59.437Z,3.60
2023-02-01T04:35:26.152Z,3.60
2023-02-01T04:37:52.848Z,3.60
2023-02-01T04:40:19.470Z,3.60
2023-02-01T04:42:46.117Z,3.60
2023-02-01T04:45:12.868Z,3.50
2023-02-01T04:47:39.909Z,3.50
2023-02-01T04:50:07.014Z,3.50
2023-02-01T04:52:34.654Z,3.50
2023-02-01T04:55:02.955Z,3.50
2023-02-01T04:57:29.605Z,3.40
2023-02-01T04:59:56.219Z,3.40
2023-02-01T05:02:22.860Z,3.50
2023-02-01T05:04:49.648Z,3.40
2023-02-01T05:07:16.353Z,3.40
2023-02-01T05:09:42.994Z,3.30
2023-02-01T05:12:29.528Z,3.30
2023-02-01T05:14:56.167Z,3.30
2023-02-01T05:17:22.807Z,3.30
2023-02-01T05:19:49.476Z,3.20
2023-02-01T05:22:16.071Z,3.10
2023-02-01T05:24:42.720Z,3.10
2023-02-01T05:27:09.390Z,3.10
2023-02-01T05:29:36.002Z,3.20
2023-02-01T05:32:19.481Z,3.10
2023-02-01T05:34:48.186Z,3.10
2023-02-01T05:37:14.798Z,3.10
2023-02-01T05:39:41.450Z,3.10
2023-02-01T05:42:08.083Z,3.20
2023-02-01T05:44:34.728Z,3.20
2023-02-01T05:47:01.455Z,3.20
2023-02-01T05:49:28.091Z,3.30
2023-02-01T05:51:54.725Z,3.30
2023-02-01T05:54:21.388Z,3.30
2023-02-01T05:56:48.144Z,3.30
2023-02-01T05:59:14.879Z,3.30
2023-02-01T06:01:41.551Z,3.40
2023-02-01T06:04:08.276Z,3.40
2023-02-01T06:06:35.143Z,3.40
2023-02-01T06:09:02.057Z,3.40
2023-02-01T06:11:33.122Z,3.30
2023-02-01T06:14:00.363Z,3.30
2023-02-01T06:16:27.199Z,3.20
2023-02-01T06:18:54.842Z,3.20
2023-02-01T06:21:24.704Z,3.30
2023-02-01T06:23:52.406Z,3.20
2023-02-01T06:26:19.250Z,3.20
2023-02-01T06:28:45.873Z,3.20
2023-02-01T06:31:12.946Z,3.20
2023-02-01T06:33:39.875Z,3.20
2023-02-01T06:36:07.613Z,3.30
2023-02-01T06:38:36.033Z,3.40
2023-02-01T06:41:03.417Z,3.40
2023-02-01T06:43:30.323Z,3.40
2023-02-01T06:46:01.250Z,3.40
2023-02-01T06:48:28.041Z,3.50
2023-02-01T06:50:54.880Z,3.60
2023-02-01T06:53:21.643Z,3.60
2023-02-01T06:55:55.462Z,3.60
2023-02-01T06:58:22.184Z,3.60
2023-02-01T07:00:49.354Z,3.60
2023-02-01T07:03:15.967Z,3.60
2023-02-01T07:05:42.651Z,3.60
2023-02-01T07:08:09.271Z,3.60
2023-02-01T07:10:35.924Z,3.60
2023-02-01T07:13:02.679Z,3.60
2023-02-01T07:15:29.335Z,3.60
2023-02-01T07:17:56.352Z,3.70
2023-02-01T07:20:23.516Z,3.60
2023-02-01T07:22:55.178Z,3.60
2023-02-01T07:25:21.829Z,3.70
2023-02-01T07:27:48.443Z,3.70
2023-02-01T07:30:15.647Z,3.60
2023-02-01T07:32:43.887Z,3.60
2023-02-01T07:35:10.628Z,3.60
2023-02-01T07:37:37.246Z,3.70
2023-02-01T07:40:04.140Z,3.70
2023-02-01T07:42:30.801Z,3.80
2023-02-01T07:44:59.711Z,3.80
2023-02-01T07:47:29.919Z,3.80
2023-02-01T07:49:56.580Z,3.80
2023-02-01T07:52:23.647Z,3.80
2023-02-01T07:54:50.583Z,3.80
2023-02-01T07:57:17.207Z,3.70
2023-02-01T08:00:04.103Z,3.70
2023-02-01T08:02:39.225Z,3.70
2023-02-01T08:05:06.666Z,3.70
2023-02-01T08:07:33.368Z,3.60
2023-02-01T08:10:00.942Z,3.50
2023-02-01T08:12:27.973Z,3.40
2023-02-01T08:14:54.842Z,3.30
2023-02-01T08:17:21.618Z,3.20
2023-02-01T08:19:48.219Z,3.20
2023-02-01T08:22:14.860Z,3.10
2023-02-01T08:24:42.663Z,3.00
2023-02-01T08:27:09.325Z,3.10
2023-02-01T08:29:35.979Z,3.20
2023-02-01T08:32:02.777Z,3.30
2023-02-01T08:34:29.542Z,3.30
2023-02-01T08:36:59.385Z,3.50
2023-02-01T08:39:26.267Z,3.50
2023-02-01T08:42:11.566Z,3.60
2023-02-01T08:44:38.188Z,3.60
2023-02-01T08:47:04.870Z,3.60
2023-02-01T08:49:31.595Z,3.60
2023-02-01T08:52:00.961Z,3.60
2023-02-01T08:54:30.579Z,3.60
2023-02-01T08:56:57.425Z,3.60
2023-02-01T08:59:25.625Z,3.60
2023-02-01T09:01:54.060Z,3.50
2023-02-01T09:04:20.937Z,3.50
2023-02-01T09:06:47.619Z,3.60
2023-02-01T09:09:14.261Z,3.60
2023-02-01T09:11:40.897Z,3.60
2023-02-01T09:14:07.592Z,3.60
2023-02-01T09:16:34.791Z,3.70
2023-02-01T09:19:24.331Z,3.70
2023-02-01T09:21:48.026Z,3.70
2023-02-01T09:24:14.675Z,3.80
2023-02-01T09:26:41.362Z,3.80
2023-02-01T09:29:14.002Z,3.80
2023-02-01T09:31:44.084Z,3.90
2023-02-01T09:34:16.577Z,4.10
2023-02-01T09:36:43.242Z,5.50
2023-02-01T09:39:10.014Z,6.80
2023-02-01T09:41:41.340Z,7.40
2023-02-01T09:44:17.229Z,7.40
2023-02-01T09:46:43.965Z,7.20
2023-02-01T09:49:17.044Z,6.90
2023-02-01T09:51:47.601Z,6.70
2023-02-01T09:54:21.297Z,6.40
2023-02-01T09:56:57.107Z,6.30
2023-02-01T09:59:29.327Z,6.50
2023-02-01T10:01:56.721Z,7.40
2023-02-01T10:04:23.926Z,7.80
2023-02-01T10:06:53.606Z,7.80
2023-02-01T10:09:25.522Z,8.00
2023-02-01T10:11:57.891Z,7.80
2023-02-01T10:14:24.500Z,7.40
2023-02-01T10:17:09.894Z,6.90
2023-02-01T10:19:54.892Z,6.70
2023-02-01T10:23:13.725Z,6.60
2023-02-01T10:25:45.117Z,6.80
2023-02-01T10:28:17.221Z,7.20
2023-02-01T10:30:45.172Z,7.90
2023-02-01T10:33:19.893Z,8.30
2023-02-01T10:35:46.980Z,7.80
2023-02-01T10:38:19.470Z,7.20
2023-02-01T10:40:46.202Z,6.70
2023-02-01T10:43:13.107Z,6.50
2023-02-01T10:45:40.704Z,6.50
2023-02-01T10:48:09.290Z,6.50
2023-02-01T10:50:52.596Z,6.40
2023-02-01T10:53:27.911Z,6.20
2023-02-01T10:55:55.969Z,6.10
2023-02-01T10:58:30.491Z,5.90
2023-02-01T11:01:03.900Z,5.70
2023-02-01T11:03:35.471Z,5.70
2023-02-01T11:06:04.110Z,5.60
2023-02-01T11:08:30.848Z,5.70
2023-02-01T11:10:59.059Z,5.80
2023-02-01T11:13:29.674Z,5.90
2023-02-01T11:15:57.384Z,6.10
2023-02-01T11:18:37.267Z,6.20
2023-02-01T11:21:04.827Z,6.20
2023-02-01T11:23:34.419Z,6.20
2023-02-01T11:26:02.435Z,6.30
2023-02-01T11:28:31.678Z,6.40
2023-02-01T11:31:00.442Z,6.50
2023-02-01T11:33:32.273Z,6.80
2023-02-01T11:36:01.906Z,7.00
2023-02-01T11:38:33.558Z,7.10
2023-02-01T11:41:14.707Z,7.20
2023-02-01T11:43:51.673Z,7.30
2023-02-01T11:46:25.877Z,7.30
2023-02-01T11:48:53.532Z,7.20
2023-02-01T11:51:32.563Z,7.20
2023-02-01T11:54:14.642Z,7.20
2023-02-01T11:57:01.687Z,7.40
2023-02-01T11:59:38.874Z,7.40
2023-02-01T12:02:20.476Z,7.50
2023-02-01T12:05:07.047Z,7.50
2023-02-01T12:07:41.915Z,7.60
2023-02-01T12:10:28.780Z,7.60
2023-02-01T12:13:06.048Z,7.50
2023-02-01T12:15:40.327Z,7.50
2023-02-01T12:18:14.275Z,7.40
2023-02-01T12:20:59.913Z,7.40
2023-02-01T12:23:45.632Z,7.50
2023-02-01T12:26:12.381Z,7.60
2023-02-01T12:28:55.228Z,7.70
2023-02-01T12:31:28.047Z,7.70
2023-02-01T12:34:11.984Z,7.70
2023-02-01T12:36:47.392Z,7.60
2023-02-01T12:39:14.007Z,7.50
2023-02-01T12:41:45.533Z,7.30
2023-02-01T12:44:17.294Z,7.20
2023-02-01T12:46:47.106Z,7.10
2023-02-01T12:49:29.208Z,7.00
2023-02-01T12:52:00.171Z,6.90
2023-02-01T12:54:42.986Z,6.80
2023-02-01T12:57:28.062Z,6.80
2023-02-01T13:00:02.281Z,6.80
2023-02-01T13:02:43.188Z,6.70
2023-02-01T13:05:18.948Z,6.70
2023-02-01T13:07:50.095Z,6.70
2023-02-01T13:10:37.620Z,6.70
2023-02-01T13:13:06.959Z,6.60
2023-02-01T13:15:37.673Z,6.60
2023-02-01T13:18:06.087Z,6.50
2023-02-01T13:20:35.193Z,6.50
2023-02-01T13:23:05.001Z,6.50
2023-02-01T13:25:43.835Z,6.60
2023-02-01T13:28:16.200Z,6.60
2023-02-01T13:31:01.461Z,6.50
2023-02-01T13:33:54.545Z,6.50
2023-02-01T13:36:28.998Z,6.50
2023-02-01T13:38:56.100Z,6.40
2023-02-01T13:41:25.273Z,6.30
2023-02-01T13:43:53.564Z,6.30
2023-02-01T13:46:20.714Z,6.50
2023-02-01T13:48:52.323Z,6.70
2023-02-01T13:51:29.747Z,6.80
2023-02-01T13:53:56.438Z,7.00
2023-02-01T13:56:24.999Z,6.90
2023-02-01T13:58:52.451Z,6.80
2023-02-01T14:01:22.228Z,6.70
2023-02-01T14:03:49.906Z,6.60
2023-02-01T14:06:19.155Z,6.50
2023-02-01T14:08:48.249Z,6.50
2023-02-01T14:11:36.552Z,6.40
2023-02-01T14:14:15.450Z,6.30
2023-02-01T14:17:05.221Z,6.20
2023-02-01T14:19:33.167Z,6.20
2023-02-01T14:22:02.073Z,6.30
2023-02-01T14:24:30.783Z,6.30
2023-02-01T14:27:18.059Z,6.20
2023-02-01T14:29:55.891Z,6.20
2023-02-01T14:32:23.352Z,6.20
2023-02-01T14:34:55.450Z,6.20
2023-02-01T14:37:22.865Z,6.20
2023-02-01T14:39:53.375Z,6.00
2023-02-01T14:42:24.620Z,6.00
2023-02-01T14:44:59.536Z,5.80
2023-02-01T14:47:28.587Z,5.70
2023-02-01T14:50:13.055Z,5.60
2023-02-01T14:52:45.355Z,5.50
2023-02-01T14:55:17.875Z,5.40
2023-02-01T14:57:45.412Z,5.30
2023-02-01T15:00:20.800Z,5.30
2023-02-01T15:02:50.751Z,5.30
2023-02-01T15:05:24.590Z,5.20
2023-02-01T15:07:52.466Z,5.20
2023-02-01T15:10:20.366Z,5.30
2023-02-01T15:12:49.339Z,5.20
2023-02-01T15:15:18.397Z,5.40
2023-02-01T15:17:58.261Z,5.40
2023-02-01T15:20:26.928Z,5.50
2023-02-01T15:22:54.873Z,5.60
2023-02-01T15:25:23.220Z,5.60
2023-02-01T15:27:50.418Z,5.60
2023-02-01T15:30:18.680Z,5.70
2023-02-01T15:32:46.100Z,5.60
2023-02-01T15:35:31.800Z,5.50
2023-02-01T15:38:17.175Z,5.50
2023-02-01T15:40:59.032Z,5.50
2023-02-01T15:43:26.567Z,5.40
2023-02-01T15:45:56.503Z,5.30
2023-02-01T15:48:24.773Z,5.20
2023-02-01T15:50:52.247Z,5.00
2023-02-01T15:53:20.583Z,4.90
2023-02-01T15:55:48.714Z,4.70
2023-02-01T15:58:18.333Z,4.30
2023-02-01T16:00:49.981Z,3.70
2023-02-01T16:03:27.154Z,3.10
2023-02-01T16:05:58.065Z,2.60
2023-02-01T16:08:25.979Z,2.20
2023-02-01T16:10:54.233Z,2.00
2023-02-01T16:13:21.479Z,1.90
2023-02-01T16:15:48.506Z,1.80
2023-02-01T16:18:17.828Z,1.80
2023-02-01T16:20:46.348Z,1.80
2023-02-01T16:23:13.555Z,1.80
2023-02-01T16:25:40.270Z,1.80
2023-02-01T16:28:07.227Z,1.80
2023-02-01T16:30:34.137Z,1.90
2023-02-01T16:33:03.649Z,1.90
2023-02-01T16:35:37.673Z,1.90
2023-02-01T16:38:09.603Z,1.90
2023-02-01T16:40:36.318Z,1.90
2023-02-01T16:43:03.281Z,1.90
2023-02-01T16:45:30.082Z,1.90
2023-02-01T16:47:57.991Z,1.90
2023-02-01T16:50:26.298Z,1.90
2023-02-01T16:52:54.262Z,1.90
2023-02-01T16:55:25.109Z,1.80
2023-02-01T16:57:52.317Z,1.80
2023-02-01T17:00:25.518Z,1.80
2023-02-01T17:02:53.709Z,1.80
2023-02-01T17:05:20.482Z,1.70
2023-02-01T17:07:47.307Z,1.70
2023-02-01T17:10:40.984Z,1.70
2023-02-01T17:13:12.082Z,1.70
2023-02-01T17:15:38.837Z,1.70
2023-02-01T17:18:06.536Z,1.60
2023-02-01T17:20:33.272Z,1.60
2023-02-01T17:23:00.548Z,1.60
2023-02-01T17:25:28.586Z,1.60
2023-02-01T17:27:55.278Z,1.60
2023-02-01T17:30:22.034Z,1.60
2023-02-01T17:32:48.787Z,1.60
2023-02-01T17:35:20.016Z,1.60
2023-02-01T17:37:47.245Z,1.60
2023-02-01T17:40:13.991Z,1.60
2023-02-01T17:42:40.717Z,1.70
2023-02-01T17:45:21.112Z,1.70
2023-02-01T17:47:48.035Z,1.70
2023-02-01T17:50:14.780Z,1.70
2023-02-01T17:52:41.489Z,1.70
2023-02-01T17:55:27.057Z,1.70
2023-02-01T17:57:53.845Z,1.60
2023-02-01T18:00:21.475Z,1.70
2023-02-01T18:02:48.136Z,1.70
2023-02-01T18:05:17.931Z,1.80
2023-02-01T18:07:44.631Z,1.80
2023-02-01T18:10:11.326Z,1.90
2023-02-01T18:12:39.118Z,1.90
2023-02-01T18:15:13.295Z,1.90
2023-02-01T18:17:39.946Z,2.00
2023-02-01T18:20:07.202Z,2.00
2023-02-01T18:22:33.851Z,2.00
2023-02-01T18:25:00.502Z,2.00
2023-02-01T18:27:27.312Z,2.00
2023-02-01T18:29:54.810Z,2.00
2023-02-01T18:32:21.423Z,2.00
2023-02-01T18:34:48.056Z,2.00
2023-02-01T18:37:14.856Z,2.00
2023-02-01T18:39:41.546Z,2.00
2023-02-01T18:42:10.419Z,2.00
2023-02-01T18:44:37.292Z,2.10
2023-02-01T18:47:04.039Z,2.10
2023-02-01T18:49:30.679Z,2.10
2023-02-01T18:51:57.348Z,2.20
2023-02-01T18:54:24.594Z,2.20
2023-02-01T18:56:52.063Z,2.30
2023-02-01T18:59:18.707Z,2.30
2023-02-01T19:01:45.383Z,2.30
2023-02-01T19:04:19.937Z,2.30
2023-02-01T19:06:51.006Z,2.40
2023-02-01T19:09:17.661Z,2.30
2023-02-01T19:11:46.046Z,2.30
2023-02-01T19:14:12.804Z,2.30
2023-02-01T19:16:39.984Z,2.20
2023-02-01T19:19:06.826Z,2.20
2023-02-01T19:21:33.437Z,2.10
2023-02-01T19:24:00.313Z,2.00
2023-02-01T19:26:27.074Z,2.00
2023-02-01T19:28:53.812Z,1.90
2023-02-01T19:31:20.586Z,1.90
2023-02-01T19:33:47.262Z,1.90
2023-02-01T19:36:13.920Z,1.90
2023-02-01T19:38:40.868Z,1.80
2023-02-01T19:41:07.512Z,1.80
2023-02-01T19:43:35.313Z,1.70
2023-02-01T19:46:03.050Z,1.70
2023-02-01T19:48:31.401Z,1.70
2023-02-01T19:50:59.060Z,1.70
2023-02-01T19:53:27.598Z,1.70
2023-02-01T19:55:54.979Z,1.70
2023-02-01T19:58:21.829Z,1.70
2023-02-01T20:00:51.409Z,1.80
2023-02-01T20:03:18.364Z,1.80
2023-02-01T20:05:45.066Z,1.80
2023-02-01T20:08:11.982Z,1.90
2023-02-01T20:10:43.656Z,1.90
2023-02-01T20:13:10.562Z,2.00
2023-02-01T20:15:37.216Z,2.00
2023-02-01T20:18:04.615Z,2.00
2023-02-01T20:20:31.335Z,2.00
2023-02-01T20:22:57.992Z,2.00
2023-02-01T20:25:24.960Z,1.90
2023-02-01T20:27:52.728Z,2.00
2023-02-01T20:30:22.148Z,2.00
2023-02-01T20:32:49.591Z,2.00
2023-02-01T20:35:16.528Z,2.00
2023-02-01T20:37:43.181Z,2.00
2023-02-01T20:40:10.929Z,2.00
2023-02-01T20:42:37.837Z,2.00
2023-02-01T20:45:05.367Z,2.10
2023-02-01T20:47:32.011Z,2.10
2023-02-01T20:49:58.685Z,2.10
2023-02-01T20:52:25.507Z,2.10
2023-02-01T20:54:52.272Z,2.20
2023-02-01T20:57:19.028Z,2.20
2023-02-01T20:59:45.981Z,2.20
2023-02-01T21:02:12.657Z,2.20
2023-02-01T21:04:39.377Z,2.30
2023-02-01T21:07:05.991Z,2.30
2023-02-01T21:09:32.720Z,2.30
2023-02-01T21:11:59.449Z,2.30
2023-02-01T21:14:26.141Z,2.30
2023-02-01T21:16:52.742Z,2.40
2023-02-01T21:19:19.430Z,2.50
2023-02-01T21:21:46.113Z,2.60
2023-02-01T21:24:12.773Z,2.70
2023-02-01T21:26:42.522Z,2.70
2023-02-01T21:29:10.208Z,2.80
2023-02-01T21:31:37.359Z,2.80
2023-02-01T21:34:04.372Z,2.80
2023-02-01T21:36:36.997Z,2.80
2023-02-01T21:39:07.964Z,2.80
2023-02-01T21:41:53.955Z,2.80
2023-02-01T21:44:20.869Z,2.90
2023-02-01T21:46:47.650Z,2.90
2023-02-01T21:49:14.557Z,2.90
2023-02-01T21:51:41.835Z,2.90
2023-02-01T21:54:09.224Z,3.00
2023-02-01T21:56:36.278Z,2.90
2023-02-01T21:59:03.101Z,3.00
2023-02-01T22:01:29.773Z,3.00
2023-02-01T22:03:56.402Z,3.00
2023-02-01T22:06:33.391Z,3.00
2023-02-01T22:09:00.162Z,3.00
2023-02-01T22:11:26.962Z,3.00
2023-02-01T22:13:53.847Z,3.00
2023-02-01T22:16:21.545Z,3.00
2023-02-01T22:18:49.078Z,3.00
2023-02-01T22:21:15.713Z,3.00
2023-02-01T22:23:42.368Z,3.00
2023-02-01T22:26:10.341Z,3.00
2023-02-01T22:28:37.941Z,3.00
2023-02-01T22:31:05.872Z,2.90
2023-02-01T22:33:36.199Z,3.00
2023-02-01T22:36:03.691Z,3.00
2023-02-01T22:38:31.041Z,3.00
2023-02-01T22:40:58.673Z,3.00
2023-02-01T22:43:25.848Z,3.00
2023-02-01T22:45:52.777Z,3.00
2023-02-01T22:48:19.672Z,3.00
2023-02-01T22:50:46.311Z,3.00
2023-02-01T22:53:12.965Z,3.00
2023-02-01T22:55:42.251Z,3.00
2023-02-01T22:58:08.925Z,3.10
2023-02-01T23:00:35.980Z,3.10
2023-02-01T23:03:02.744Z,3.10
2023-02-01T23:05:29.444Z,3.20
2023-02-01T23:07:56.111Z,3.20
2023-02-01T23:10:23.164Z,3.20
2023-02-01T23:12:50.105Z,3.20
2023-02-01T23:15:17.424Z,3.10
2023-02-01T23:17:44.406Z,3.10
2023-02-01T23:20:14.491Z,3.10
2023-02-01T23:22:45.068Z,3.10
2023-02-01T23:25:12.860Z,3.10
2023-02-01T23:27:39.549Z,3.10
2023-02-01T23:30:06.549Z,3.10
2023-02-01T23:32:33.807Z,3.10
2023-02-01T23:35:00.935Z,3.10
2023-02-01T23:37:27.969Z,3.10
2023-02-01T23:39:54.690Z,3.10
2023-02-01T23:42:21.378Z,3.10
2023-02-01T23:44:48.086Z,3.10
2023-02-01T23:47:14.806Z,3.10
2023-02-01T23:49:41.481Z,3.10
2023-02-01T23:52:09.250Z,3.10
2023-02-01T23:54:36.040Z,3.10
2023-02-01T23:57:02.725Z,3.10
2023-02-01T23:59:30.632Z,3.10
